createdAt,value
2022-12-22T00:02:11.729Z,99589.16
2022-12-22T00:06:34.090Z,99579.44
2022-12-22T00:10:55.189Z,99571.72
2022-12-22T00:15:16.427Z,99558.06
2022-12-22T00:19:36.927Z,99565.56
2022-12-22T00:23:58.603Z,99564.50
2022-12-22T00:28:19.485Z,99554.19
2022-12-22T00:32:41.273Z,99555.00
2022-12-22T00:37:02.195Z,99548.63
2022-12-22T00:41:24.465Z,99553.00
2022-12-22T00:45:45.290Z,99542.69
2022-12-22T00:50:07.914Z,99538.44
2022-12-22T00:54:29.646Z,99525.50
2022-12-22T00:58:51.321Z,99511.84
2022-12-22T01:03:12.120Z,99506.38
2022-12-22T01:07:34.714Z,99503.03
2022-12-22T01:11:55.565Z,99492.94
2022-12-22T01:16:18.220Z,99489.25
2022-12-22T01:20:38.882Z,99485.56
2022-12-22T01:24:59.369Z,99479.63
2022-12-22T01:29:19.876Z,99466.66
2022-12-22T01:33:41.630Z,99457.84
2022-12-22T01:38:02.040Z,99453.09
2022-12-22T01:42:22.723Z,99445.72
2022-12-22T01:46:44.849Z,99439.66
2022-12-22T01:51:07.208Z,99442.88
2022-12-22T01:55:31.971Z,99438.25
2022-12-22T01:59:53.247Z,99433.25
2022-12-22T02:04:14.233Z,99428.13
2022-12-22T02:08:45.133Z,99417.69
2022-12-22T02:13:15.703Z,99409.72
2022-12-22T02:17:44.681Z,99394.16
2022-12-22T02:22:17.288Z,99382.03
2022-12-22T02:26:46.189Z,99374.91
2022-12-22T02:31:09.031Z,99367.31
2022-12-22T02:35:31.163Z,99361.97
2022-12-22T02:39:59.042Z,99354.00
2022-12-22T02:44:40.751Z,99350.69
2022-12-22T02:49:09.334Z,99341.75
2022-12-22T02:53:32.560Z,99340.69
2022-12-22T02:57:53.132Z,99337.84
2022-12-22T03:02:15.782Z,99334.63
2022-12-22T03:06:36.393Z,99325.47
2022-12-22T03:10:57.064Z,99330.66
2022-12-22T03:15:17.400Z,99320.84
2022-12-22T03:19:39.106Z,99320.56
2022-12-22T03:23:59.965Z,99302.78
2022-12-22T03:28:04.324Z,99310.97
2022-12-22T03:32:07.448Z,99304.31
2022-12-22T03:36:12.541Z,99301.44
2022-12-22T03:40:15.736Z,99285.06
2022-12-22T03:44:36.501Z,99288.47
2022-12-22T03:48:39.747Z,99284.34
2022-12-22T03:52:44.135Z,99268.56
2022-12-22T03:56:47.642Z,99266.66
2022-12-22T04:00:50.841Z,99264.63
2022-12-22T04:04:54.019Z,99268.44
2022-12-22T04:08:58.411Z,99271.50
2022-12-22T04:13:01.492Z,99259.78
2022-12-22T04:17:05.757Z,99263.91
2022-12-22T04:21:08.846Z,99254.66
2022-12-22T04:25:13.412Z,99256.72
2022-12-22T04:29:16.584Z,99251.00
2022-12-22T04:33:19.778Z,99248.13
2022-12-22T04:37:22.815Z,99243.75
2022-12-22T04:41:27.335Z,99235.44
2022-12-22T04:45:30.468Z,99242.69
2022-12-22T04:49:34.033Z,99239.13
2022-12-22T04:53:37.143Z,99239.97
2022-12-22T04:57:41.645Z,99240.34
2022-12-22T05:01:45.006Z,99242.81
2022-12-22T05:05:48.178Z,99239.75
2022-12-22T05:09:51.204Z,99241.28
2022-12-22T05:13:55.740Z,99240.22
2022-12-22T05:17:59.728Z,99242.22
2022-12-22T05:22:03.055Z,99248.41
2022-12-22T05:26:06.538Z,99239.75
2022-12-22T05:30:13.321Z,99241.28
2022-12-22T05:34:16.341Z,99248.88
2022-12-22T05:38:19.370Z,99243.66
2022-12-22T05:46:53.220Z,99246.72
2022-12-22T05:50:56.228Z,99247.06
2022-12-22T05:54:59.278Z,99253.25
2022-12-22T05:59:02.278Z,99250.28
2022-12-22T06:03:06.836Z,99250.53
2022-12-22T06:07:09.893Z,99242.34
2022-12-22T06:11:12.875Z,99254.66
2022-12-22T06:15:16.261Z,99248.75
2022-12-22T06:19:20.645Z,99254.06
2022-12-22T06:23:24.295Z,99262.84
2022-12-22T06:27:27.344Z,99263.31
2022-12-22T06:31:30.426Z,99270.44
2022-12-22T06:35:34.852Z,99283.00
2022-12-22T06:39:37.848Z,99283.59
2022-12-22T06:43:40.964Z,99291.09
2022-12-22T06:47:44.042Z,99308.03
2022-12-22T06:51:48.672Z,99309.78
2022-12-22T06:55:51.723Z,99317.53
2022-12-22T06:59:57.663Z,99322.47
2022-12-22T07:04:01.263Z,99344.44
2022-12-22T07:08:09.045Z,99355.06
2022-12-22T07:12:12.459Z,99363.72
2022-12-22T07:16:15.632Z,99377.44
2022-12-22T07:20:18.778Z,99400.13
2022-12-22T07:24:26.061Z,99410.47
2022-12-22T07:28:29.326Z,99411.06
2022-12-22T07:32:32.368Z,99417.59
2022-12-22T07:36:35.610Z,99426.06
2022-12-22T07:40:42.376Z,99424.38
2022-12-22T07:44:46.098Z,99434.13
2022-12-22T07:49:06.658Z,99440.06
2022-12-22T07:53:09.748Z,99450.38
2022-12-22T07:57:14.152Z,99458.59
2022-12-22T08:01:17.191Z,99469.53
2022-12-22T08:05:20.879Z,99484.25
2022-12-22T08:09:23.893Z,99488.50
2022-12-22T08:13:28.321Z,99504.09
2022-12-22T08:17:31.414Z,99514.41
2022-12-22T08:21:34.467Z,99504.09
2022-12-22T08:25:37.744Z,99525.09
2022-12-22T08:29:45.246Z,99535.56
2022-12-22T08:33:49.004Z,99537.69
2022-12-22T08:37:53.300Z,99565.84
2022-12-22T08:41:56.472Z,99573.19
2022-12-22T08:46:00.901Z,99576.41
2022-12-22T08:50:04.772Z,99584.84
2022-12-22T08:54:07.855Z,99590.66
2022-12-22T08:58:12.473Z,99601.00
2022-12-22T09:02:17.407Z,99611.69
2022-12-22T09:06:26.983Z,99612.97
2022-12-22T09:10:30.719Z,99612.19
2022-12-22T09:14:34.014Z,99616.72
2022-12-22T09:18:38.411Z,99630.13
2022-12-22T09:22:41.635Z,99634.38
2022-12-22T09:26:44.697Z,99654.56
2022-12-22T09:30:51.260Z,99667.56
2022-12-22T09:34:55.697Z,99686.75
2022-12-22T09:38:59.113Z,99698.13
2022-12-22T09:43:02.762Z,99682.78
2022-12-22T09:47:19.061Z,99695.50
2022-12-22T09:51:27.345Z,99707.09
2022-12-22T09:55:41.012Z,99695.41
2022-12-22T09:59:44.154Z,99699.94
2022-12-22T10:03:59.885Z,99705.31
2022-12-22T10:08:11.976Z,99717.72
2022-12-22T10:12:16.719Z,99714.63
2022-12-22T10:16:22.757Z,99724.09
2022-12-22T10:20:27.899Z,99720.44
2022-12-22T10:24:37.205Z,99736.75
2022-12-22T10:28:44.617Z,99713.00
2022-12-22T10:33:03.925Z,99721.34
2022-12-22T10:37:07.284Z,99739.44
2022-12-22T10:41:17.704Z,99741.31
2022-12-22T10:45:22.830Z,99749.66
2022-12-22T10:49:29.187Z,99760.94
2022-12-22T10:53:45.556Z,99762.81
2022-12-22T10:57:50.612Z,99769.31
2022-12-22T11:01:53.930Z,99789.94
2022-12-22T11:05:57.566Z,99786.25
2022-12-22T11:10:00.664Z,99747.94
2022-12-22T11:14:15.312Z,99729.91
2022-12-22T11:18:33.050Z,99719.69
2022-12-22T11:22:42.109Z,99713.16
2022-12-22T11:26:56.693Z,99720.25
2022-12-22T11:31:16.660Z,99707.19
2022-12-22T11:35:31.811Z,99707.66
2022-12-22T11:39:43.045Z,99719.91
2022-12-22T11:44:02.880Z,99719.06
2022-12-22T11:48:29.157Z,99723.09
2022-12-22T11:52:47.039Z,99733.84
2022-12-22T11:56:58.087Z,99724.34
2022-12-22T12:01:31.282Z,99715.22
2022-12-22T12:05:44.677Z,99704.13
2022-12-22T12:09:54.540Z,99704.19
2022-12-22T12:14:07.011Z,99708.97
2022-12-22T12:18:28.353Z,99708.13
2022-12-22T12:22:50.651Z,99714.78
2022-12-22T12:27:05.135Z,99719.50
2022-12-22T12:31:10.856Z,99712.75
2022-12-22T12:35:33.030Z,99728.78
2022-12-22T12:39:42.491Z,99717.75
2022-12-22T12:43:47.654Z,99716.59
2022-12-22T12:47:50.690Z,99697.84
2022-12-22T12:51:54.599Z,99703.72
2022-12-22T12:56:08.555Z,99714.50
2022-12-22T13:00:48.713Z,99730.56
2022-12-22T13:05:28.109Z,99729.19
2022-12-22T13:13:57.923Z,99729.00
2022-12-22T13:18:02.536Z,99721.13
2022-12-22T13:22:09.123Z,99717.81
2022-12-22T13:26:16.255Z,99725.72
2022-12-22T13:30:22.606Z,99730.41
2022-12-22T13:34:51.346Z,99744.19
2022-12-22T13:39:02.844Z,99755.69
2022-12-22T13:43:11.161Z,99762.28
2022-12-22T13:47:16.244Z,99751.78
2022-12-22T13:51:22.583Z,99743.91
2022-12-22T13:55:29.472Z,99739.81
2022-12-22T13:59:36.126Z,99731.34
2022-12-22T14:04:02.849Z,99732.66
2022-12-22T14:08:07.739Z,99730.78
2022-12-22T14:12:16.015Z,99726.22
2022-12-22T14:16:19.197Z,99731.69
2022-12-22T14:20:27.340Z,99736.69
2022-12-22T14:24:38.697Z,99733.44
2022-12-22T14:28:50.256Z,99732.03
2022-12-22T14:32:55.930Z,99708.44
2022-12-22T14:37:01.558Z,99707.09
2022-12-22T14:41:32.582Z,99699.81
2022-12-22T14:45:35.850Z,99695.84
2022-12-22T14:49:46.207Z,99695.69
2022-12-22T14:53:54.271Z,99679.56
2022-12-22T14:58:02.239Z,99684.16
2022-12-22T15:02:22.384Z,99686.59
2022-12-22T15:06:35.341Z,99686.81
2022-12-22T15:10:43.364Z,99683.25
2022-12-22T15:14:48.990Z,99686.59
2022-12-22T15:18:53.683Z,99685.59
2022-12-22T15:22:56.801Z,99692.72
2022-12-22T15:27:01.394Z,99702.25
2022-12-22T15:31:07.959Z,99706.91
2022-12-22T15:35:18.880Z,99704.88
2022-12-22T15:39:23.427Z,99701.09
2022-12-22T15:43:56.605Z,99697.31
2022-12-22T15:47:53.445Z,99692.91
2022-12-22T15:51:59.342Z,99697.31
2022-12-22T15:56:02.852Z,99695.41
2022-12-22T16:00:12.227Z,99699.00
2022-12-22T16:04:15.399Z,99688.34
2022-12-22T16:08:22.137Z,99684.56
2022-12-22T16:12:25.397Z,99674.63
2022-12-22T16:16:29.868Z,99664.91
2022-12-22T16:20:38.339Z,99666.38
2022-12-22T16:24:44.806Z,99669.47
2022-12-22T16:28:47.876Z,99657.91
2022-12-22T16:32:52.627Z,99647.00
2022-12-22T16:36:55.748Z,99648.22
2022-12-22T16:40:58.918Z,99639.56
2022-12-22T16:45:04.590Z,99631.53
2022-12-22T16:49:10.519Z,99620.16
2022-12-22T16:53:15.084Z,99616.94
2022-12-22T16:57:18.341Z,99612.22
2022-12-22T17:01:30.269Z,99614.34
2022-12-22T17:05:43.964Z,99611.16
2022-12-22T17:09:52.879Z,99601.47
2022-12-22T17:14:04.609Z,99606.41
2022-12-22T17:18:16.920Z,99599.63
2022-12-22T17:22:26.361Z,99594.00
2022-12-22T17:26:29.417Z,99589.84
2022-12-22T17:30:32.477Z,99577.13
2022-12-22T17:34:35.602Z,99560.75
2022-12-22T17:38:40.108Z,99562.22
2022-12-22T17:42:43.384Z,99548.78
2022-12-22T17:46:46.876Z,99545.84
2022-12-22T17:50:50.397Z,99548.69
2022-12-22T17:54:55.368Z,99551.59
2022-12-22T17:58:58.579Z,99534.88
2022-12-22T18:03:01.801Z,99526.69
2022-12-22T18:07:05.067Z,99528.81
2022-12-22T18:11:10.489Z,99525.16
2022-12-22T18:15:16.879Z,99516.34
2022-12-22T18:19:20.408Z,99511.00
2022-12-22T18:23:27.438Z,99505.19
2022-12-22T18:27:31.814Z,99496.16
2022-12-22T18:31:35.114Z,99499.59
2022-12-22T18:35:39.200Z,99496.88
2022-12-22T18:39:44.044Z,99492.94
2022-12-22T18:43:48.585Z,99494.25
2022-12-22T18:47:51.772Z,99490.06
2022-12-22T18:51:54.806Z,99492.47
2022-12-22T18:55:59.090Z,99490.69
2022-12-22T19:00:08.247Z,99486.03
2022-12-22T19:04:16.483Z,99486.03
2022-12-22T19:08:22.309Z,99485.56
2022-12-22T19:12:25.565Z,99478.88
2022-12-22T19:16:30.147Z,99488.75
2022-12-22T19:20:33.401Z,99477.69
2022-12-22T19:24:36.695Z,99481.03
2022-12-22T19:28:42.128Z,99482.69
2022-12-22T19:32:49.320Z,99480.56
2022-12-22T19:36:52.556Z,99469.13
2022-12-22T19:41:00.312Z,99472.59
2022-12-22T19:45:10.276Z,99469.03
2022-12-22T19:49:17.940Z,99470.56
2022-12-22T19:53:21.817Z,99474.50
2022-12-22T19:57:25.300Z,99489.13
2022-12-22T20:01:28.829Z,99482.09
2022-12-22T20:05:34.091Z,99475.56
2022-12-22T20:09:37.529Z,99476.97
2022-12-22T20:13:41.341Z,99483.03
2022-12-22T20:17:44.480Z,99486.84
2022-12-22T20:21:48.973Z,99482.31
2022-12-22T20:25:56.247Z,99478.31
2022-12-22T20:29:59.379Z,99473.53
2022-12-22T20:34:02.456Z,99477.13
2022-12-22T20:38:18.776Z,99481.75
2022-12-22T20:42:23.739Z,99489.25
2022-12-22T20:46:29.344Z,99473.56
2022-12-22T20:50:33.871Z,99471.63
2022-12-22T20:54:38.935Z,99480.31
2022-12-22T20:58:42.016Z,99482.56
2022-12-22T21:02:45.667Z,99466.03
2022-12-22T21:06:51.624Z,99470.69
2022-12-22T21:10:56.494Z,99476.97
2022-12-22T21:14:59.570Z,99471.50
2022-12-22T21:19:03.635Z,99469.03
2022-12-22T21:23:06.736Z,99474.97
2022-12-22T21:27:16.620Z,99478.31
2022-12-22T21:31:19.774Z,99477.72
2022-12-22T21:35:25.276Z,99474.13
2022-12-22T21:39:37.019Z,99474.59
2022-12-22T21:43:41.445Z,99472.94
2022-12-22T21:47:44.636Z,99471.88
2022-12-22T21:51:47.890Z,99465.81
2022-12-22T21:55:51.263Z,99468.53
2022-12-22T21:59:55.685Z,99464.13
2022-12-22T22:03:58.867Z,99469.00
2022-12-22T22:08:03.466Z,99479.84
2022-12-22T22:12:28.234Z,99476.28
2022-12-22T22:16:33.175Z,99484.13
2022-12-22T22:20:36.277Z,99476.75
2022-12-22T22:24:39.388Z,99481.59
2022-12-22T22:28:42.474Z,99482.47
2022-12-22T22:32:47.584Z,99479.13
2022-12-22T22:36:51.774Z,99473.66
2022-12-22T22:40:59.640Z,99479.59
2022-12-22T22:45:02.703Z,99477.94
2022-12-22T22:49:08.252Z,99480.06
2022-12-22T22:53:11.325Z,99459.00
2022-12-22T22:57:14.379Z,99469.59
2022-12-22T23:01:20.144Z,99472.94
2022-12-22T23:05:24.708Z,99462.59
2022-12-22T23:09:27.745Z,99472.94
2022-12-22T23:13:30.949Z,99453.19
2022-12-22T23:17:34.109Z,99444.84
2022-12-22T23:21:38.481Z,99456.25
2022-12-22T23:25:43.542Z,99461.25
2022-12-22T23:29:46.587Z,99466.72
2022-12-22T23:33:49.742Z,99463.13
2022-12-22T23:37:54.152Z,99472.38
2022-12-22T23:41:57.204Z,99472.19
2022-12-22T23:46:00.610Z,99478.84
2022-12-22T23:50:03.643Z,99467.91
2022-12-22T23:54:08.111Z,99473.75
2022-12-22T23:58:11.165Z,99480.06
